createdAt,value
2018-08-30T00:02:11.193Z,73.75
2018-08-30T00:04:40.214Z,73.66
2018-08-30T00:07:09.261Z,73.11
2018-08-30T00:09:38.434Z,74.00
2018-08-30T00:12:07.521Z,74.12
2018-08-30T00:14:36.452Z,73.25
2018-08-30T00:17:05.531Z,73.45
2018-08-30T00:19:34.577Z,73.00
2018-08-30T00:22:03.530Z,74.04
2018-08-30T00:24:32.719Z,72.85
2018-08-30T00:27:01.763Z,72.23
2018-08-30T00:29:30.734Z,71.74
2018-08-30T00:31:59.771Z,71.17
2018-08-30T00:34:28.982Z,71.96
2018-08-30T00:36:57.972Z,71.44
2018-08-30T00:39:26.929Z,71.96
2018-08-30T00:41:55.901Z,71.44
2018-08-30T00:44:25.125Z,70.91
2018-08-30T00:46:54.462Z,71.15
2018-08-30T00:49:23.714Z,70.52
2018-08-30T00:51:52.866Z,71.67
2018-08-30T00:54:22.118Z,71.47
2018-08-30T00:56:51.485Z,71.39
2018-08-30T00:59:20.698Z,70.81
2018-08-30T01:01:49.957Z,70.65
2018-08-30T01:04:19.369Z,69.98
2018-08-30T01:06:48.376Z,69.68
2018-08-30T01:09:17.270Z,70.05
2018-08-30T01:11:46.510Z,69.34
2018-08-30T01:14:15.744Z,70.15
2018-08-30T01:16:45.150Z,70.95
2018-08-30T01:19:14.285Z,69.05
2018-08-30T01:21:43.280Z,69.95
2018-08-30T01:24:12.626Z,69.64
2018-08-30T01:26:41.953Z,70.54
2018-08-30T01:29:10.929Z,70.94
2018-08-30T01:31:40.018Z,69.72
2018-08-30T01:34:11.620Z,69.73
2018-08-30T01:36:41.823Z,69.75
2018-08-30T01:39:11.219Z,69.58
2018-08-30T01:41:41.259Z,68.30
2018-08-30T01:44:10.399Z,70.71
2018-08-30T01:46:39.403Z,69.16
2018-08-30T01:49:08.389Z,67.64
2018-08-30T01:51:37.473Z,68.43
2018-08-30T01:54:06.861Z,67.41
2018-08-30T01:56:35.835Z,66.10
2018-08-30T01:59:04.898Z,68.51
2018-08-30T02:01:33.858Z,67.51
2018-08-30T02:04:03.202Z,68.92
2018-08-30T02:06:32.202Z,68.73
2018-08-30T02:09:01.157Z,68.16
2018-08-30T02:11:30.086Z,69.05
2018-08-30T02:13:59.115Z,68.45
2018-08-30T02:16:28.052Z,69.40
2018-08-30T02:18:57.032Z,68.28
2018-08-30T02:21:26.026Z,67.42
2018-08-30T02:23:55.066Z,69.04
2018-08-30T02:26:24.051Z,68.58
2018-08-30T02:28:53.063Z,69.22
2018-08-30T02:31:22.026Z,69.34
2018-08-30T02:33:51.050Z,69.08
2018-08-30T02:36:19.989Z,69.71
2018-08-30T02:38:49.007Z,68.83
2018-08-30T02:41:17.957Z,67.79
2018-08-30T02:43:46.986Z,68.51
2018-08-30T02:46:15.949Z,68.59
2018-08-30T02:48:44.894Z,67.50
2018-08-30T02:51:13.916Z,68.81
2018-08-30T02:53:43.117Z,69.07
2018-08-30T02:56:12.149Z,69.00
2018-08-30T02:58:41.131Z,69.07
2018-08-30T03:01:10.130Z,68.67
2018-08-30T03:03:39.449Z,68.85
2018-08-30T03:06:08.473Z,68.64
2018-08-30T03:08:37.462Z,68.79
2018-08-30T03:11:06.598Z,68.96
2018-08-30T03:13:35.622Z,68.48
2018-08-30T03:16:04.637Z,68.21
2018-08-30T03:18:33.618Z,67.90
2018-08-30T03:21:02.633Z,68.29
2018-08-30T03:23:31.558Z,67.40
2018-08-30T03:26:00.594Z,67.84
2018-08-30T03:28:29.486Z,67.74
2018-08-30T03:30:58.639Z,67.75
2018-08-30T03:33:27.608Z,67.90
2018-08-30T03:35:56.617Z,67.39
2018-08-30T03:38:25.619Z,67.97
2018-08-30T03:40:54.614Z,67.16
2018-08-30T03:43:23.514Z,66.70
2018-08-30T03:45:52.564Z,66.98
2018-08-30T03:48:21.558Z,67.66
2018-08-30T03:50:50.534Z,69.19
2018-08-30T03:53:19.549Z,67.97
2018-08-30T03:55:48.534Z,67.77
2018-08-30T03:58:17.563Z,67.95
2018-08-30T04:00:46.659Z,68.50
2018-08-30T04:03:15.609Z,67.93
2018-08-30T04:05:44.605Z,67.82
2018-08-30T04:08:13.640Z,68.06
2018-08-30T04:10:42.759Z,67.83
2018-08-30T04:13:11.759Z,67.88
2018-08-30T04:15:40.739Z,67.95
2018-08-30T04:18:09.737Z,67.52
2018-08-30T04:20:38.800Z,67.76
2018-08-30T04:23:07.733Z,67.76
2018-08-30T04:25:36.736Z,68.29
2018-08-30T04:28:05.902Z,67.03
2018-08-30T04:30:34.817Z,67.87
2018-08-30T04:33:03.777Z,67.14
2018-08-30T04:35:32.721Z,67.21
2018-08-30T04:38:01.770Z,67.43
2018-08-30T04:40:30.703Z,66.81
2018-08-30T04:42:59.707Z,66.85
2018-08-30T04:45:28.787Z,66.96
2018-08-30T04:47:57.755Z,68.25
2018-08-30T04:50:26.869Z,68.07
2018-08-30T04:52:55.882Z,66.94
2018-08-30T04:55:24.899Z,68.25
2018-08-30T04:57:53.885Z,68.41
2018-08-30T05:00:23.058Z,67.45
2018-08-30T05:02:52.135Z,68.48
2018-08-30T05:05:21.151Z,67.97
2018-08-30T05:07:50.315Z,67.43
2018-08-30T05:10:19.410Z,68.98
2018-08-30T05:12:48.477Z,67.62
2018-08-30T05:15:17.406Z,68.41
2018-08-30T05:17:46.453Z,67.02
2018-08-30T05:20:15.401Z,67.66
2018-08-30T05:22:44.496Z,66.75
2018-08-30T05:25:13.480Z,65.92
2018-08-30T05:27:42.522Z,66.42
2018-08-30T05:30:11.490Z,66.67
2018-08-30T05:32:40.578Z,66.26
2018-08-30T05:35:09.662Z,66.64
2018-08-30T05:37:38.789Z,65.67
2018-08-30T05:40:07.822Z,65.66
2018-08-30T05:42:36.957Z,66.62
2018-08-30T05:45:05.906Z,65.37
2018-08-30T05:47:34.994Z,67.28
2018-08-30T05:50:03.942Z,67.16
2018-08-30T05:52:32.922Z,66.24
2018-08-30T05:55:01.938Z,65.35
2018-08-30T05:57:31.024Z,65.88
2018-08-30T06:00:01.358Z,65.57
2018-08-30T06:02:30.721Z,65.69
2018-08-30T06:05:00.117Z,65.65
2018-08-30T06:07:29.148Z,65.19
2018-08-30T06:09:58.108Z,65.64
2018-08-30T06:12:27.231Z,65.29
2018-08-30T06:14:56.951Z,65.00
2018-08-30T06:17:26.230Z,64.23
2018-08-30T06:19:55.317Z,64.41
2018-08-30T06:22:24.344Z,64.58
2018-08-30T06:24:53.442Z,64.65
2018-08-30T06:27:22.477Z,64.25
2018-08-30T06:29:51.497Z,65.11
2018-08-30T06:32:20.593Z,65.40
2018-08-30T06:34:49.671Z,65.09
2018-08-30T06:37:18.749Z,64.88
2018-08-30T06:39:47.818Z,65.75
2018-08-30T06:42:16.793Z,64.65
2018-08-30T06:44:45.807Z,66.04
2018-08-30T06:47:14.932Z,64.71
2018-08-30T06:49:43.927Z,64.90
2018-08-30T06:52:12.971Z,63.89
2018-08-30T06:54:41.985Z,63.60
2018-08-30T06:57:10.961Z,63.07
2018-08-30T06:59:39.961Z,62.38
2018-08-30T07:02:08.968Z,62.66
2018-08-30T07:04:37.942Z,61.91
2018-08-30T07:07:06.902Z,62.21
2018-08-30T07:09:36.154Z,62.64
2018-08-30T07:12:05.200Z,63.27
2018-08-30T07:14:34.296Z,62.18
2018-08-30T07:17:03.330Z,61.61
2018-08-30T07:19:32.373Z,62.47
2018-08-30T07:22:01.350Z,62.89
2018-08-30T07:24:30.408Z,62.03
2018-08-30T07:26:59.338Z,62.86
2018-08-30T07:29:28.347Z,63.17
2018-08-30T07:31:57.428Z,62.03
2018-08-30T07:34:26.821Z,62.54
2018-08-30T07:36:55.784Z,62.03
2018-08-30T07:39:24.846Z,62.25
2018-08-30T07:41:53.860Z,63.43
2018-08-30T07:44:23.054Z,63.46
2018-08-30T07:46:52.145Z,62.64
2018-08-30T07:49:21.138Z,62.47
2018-08-30T07:51:50.215Z,62.07
2018-08-30T07:54:19.328Z,61.98
2018-08-30T07:56:48.365Z,61.37
2018-08-30T07:59:17.382Z,61.60
2018-08-30T08:01:46.397Z,60.78
2018-08-30T08:04:15.615Z,60.63
2018-08-30T08:06:44.726Z,60.25
2018-08-30T08:09:13.853Z,60.68
2018-08-30T08:11:42.963Z,61.10
2018-08-30T08:14:12.033Z,60.53
2018-08-30T08:16:41.124Z,60.36
2018-08-30T08:19:10.220Z,59.05
2018-08-30T08:21:39.260Z,58.50
2018-08-30T08:24:08.610Z,57.25
2018-08-30T08:26:37.622Z,55.46
2018-08-30T08:29:06.906Z,55.79
2018-08-30T08:31:35.890Z,55.87
2018-08-30T08:34:04.901Z,55.73
2018-08-30T08:36:33.806Z,54.80
2018-08-30T08:39:03.080Z,55.19
2018-08-30T08:41:32.354Z,55.74
2018-08-30T08:44:01.478Z,55.75
2018-08-30T08:46:30.860Z,56.63
2018-08-30T08:48:59.915Z,56.70
2018-08-30T08:51:28.853Z,56.10
2018-08-30T08:53:57.938Z,55.58
2018-08-30T08:56:26.861Z,54.53
2018-08-30T08:58:56.255Z,53.44
2018-08-30T09:01:25.180Z,54.25
2018-08-30T09:03:54.201Z,54.61
2018-08-30T09:06:23.156Z,54.31
2018-08-30T09:08:52.203Z,54.27
2018-08-30T09:11:21.134Z,55.07
2018-08-30T09:13:50.158Z,55.57
2018-08-30T09:16:19.104Z,54.00
2018-08-30T09:18:48.683Z,52.32
2018-08-30T09:21:17.677Z,51.25
2018-08-30T09:23:46.648Z,53.85
2018-08-30T09:26:15.602Z,53.81
2018-08-30T09:28:44.575Z,53.55
2018-08-30T09:31:13.585Z,53.89
2018-08-30T09:33:42.715Z,53.74
2018-08-30T09:36:11.649Z,51.52
2018-08-30T09:38:40.655Z,51.96
2018-08-30T09:41:09.595Z,51.62
2018-08-30T09:43:38.594Z,49.87
2018-08-30T09:46:07.569Z,50.35
2018-08-30T09:48:36.677Z,48.32
2018-08-30T09:51:05.758Z,48.58
2018-08-30T09:53:34.873Z,46.72
2018-08-30T09:56:04.024Z,46.88
2018-08-30T09:58:33.038Z,46.47
2018-08-30T10:01:07.032Z,46.77
2018-08-30T10:03:36.078Z,48.80
2018-08-30T10:06:05.221Z,46.89
2018-08-30T10:08:34.625Z,46.77
2018-08-30T10:11:03.899Z,44.67
2018-08-30T10:13:33.224Z,47.33
2018-08-30T10:16:02.249Z,47.53
2018-08-30T10:18:31.226Z,45.68
2018-08-30T10:21:00.248Z,44.48
2018-08-30T10:23:29.347Z,44.36
2018-08-30T10:25:58.308Z,42.85
2018-08-30T10:28:27.306Z,42.11
2018-08-30T10:30:56.308Z,42.68
2018-08-30T10:33:25.530Z,44.09
2018-08-30T10:35:54.784Z,43.02
2018-08-30T10:38:24.084Z,42.88
2018-08-30T10:40:53.110Z,43.91
2018-08-30T10:43:22.015Z,44.69
2018-08-30T10:45:50.998Z,44.85
2018-08-30T10:48:19.941Z,45.07
2018-08-30T10:50:48.899Z,45.14
2018-08-30T10:53:17.808Z,46.60
2018-08-30T10:55:46.791Z,42.88
2018-08-30T10:58:15.800Z,42.04
2018-08-30T11:00:44.819Z,42.37
2018-08-30T11:03:14.081Z,42.68
2018-08-30T11:05:43.261Z,43.82
2018-08-30T11:08:12.242Z,43.77
2018-08-30T11:10:41.331Z,43.98
2018-08-30T11:13:10.469Z,44.13
2018-08-30T11:15:39.381Z,44.53
2018-08-30T11:18:08.750Z,44.92
2018-08-30T11:20:37.792Z,46.21
2018-08-30T11:23:06.786Z,45.10
2018-08-30T11:25:35.833Z,44.37
2018-08-30T11:28:04.847Z,45.34
2018-08-30T11:30:33.893Z,44.26
2018-08-30T11:33:02.921Z,42.38
2018-08-30T11:35:31.927Z,44.01
2018-08-30T11:38:00.996Z,43.19
2018-08-30T11:40:30.034Z,44.26
2018-08-30T11:42:59.158Z,43.63
2018-08-30T11:45:28.210Z,39.80
2018-08-30T11:47:57.228Z,40.71
2018-08-30T11:50:26.213Z,40.28
2018-08-30T11:52:55.215Z,40.83
2018-08-30T11:55:24.278Z,41.35
2018-08-30T11:57:53.354Z,42.60
2018-08-30T12:00:22.426Z,41.77
2018-08-30T12:02:51.421Z,39.42
2018-08-30T12:05:20.435Z,39.24
2018-08-30T12:07:50.287Z,39.17
2018-08-30T12:10:19.443Z,38.42
2018-08-30T12:12:48.406Z,37.55
2018-08-30T12:15:17.438Z,38.62
2018-08-30T12:17:46.439Z,38.61
2018-08-30T12:20:15.451Z,39.83
2018-08-30T12:22:44.467Z,38.74
2018-08-30T12:25:13.394Z,40.05
2018-08-30T12:27:42.422Z,38.85
2018-08-30T12:30:11.367Z,38.48
2018-08-30T12:32:40.421Z,40.92
2018-08-30T12:35:09.621Z,40.87
2018-08-30T12:37:38.664Z,40.13
2018-08-30T12:40:07.726Z,41.02
2018-08-30T12:42:36.627Z,39.34
2018-08-30T12:45:05.698Z,42.21
2018-08-30T12:47:35.225Z,42.79
2018-08-30T12:50:04.307Z,41.37
2018-08-30T12:52:33.401Z,41.09
2018-08-30T12:55:02.457Z,42.52
2018-08-30T12:57:31.489Z,41.24
2018-08-30T13:00:00.485Z,41.82
2018-08-30T13:02:29.548Z,39.92
2018-08-30T13:04:58.599Z,40.09
2018-08-30T13:07:27.695Z,39.02
2018-08-30T13:09:56.776Z,38.28
2018-08-30T13:12:25.848Z,38.50
2018-08-30T13:14:54.662Z,38.33
2018-08-30T13:17:23.625Z,38.72
2018-08-30T13:19:52.676Z,39.33
2018-08-30T13:22:21.858Z,40.34
2018-08-30T13:24:50.793Z,38.06
2018-08-30T13:27:19.854Z,36.05
2018-08-30T13:29:48.823Z,35.97
2018-08-30T13:32:17.938Z,34.31
2018-08-30T13:34:47.001Z,33.26
2018-08-30T13:37:15.869Z,32.71
2018-08-30T13:39:45.000Z,35.02
2018-08-30T13:42:14.094Z,35.07
2018-08-30T13:44:43.279Z,35.02
2018-08-30T13:47:12.183Z,35.83
2018-08-30T13:49:41.038Z,37.07
2018-08-30T13:52:10.269Z,34.09
2018-08-30T13:54:39.086Z,33.16
2018-08-30T13:57:08.568Z,32.72
2018-08-30T13:59:37.649Z,34.17
2018-08-30T14:02:06.501Z,34.31
2018-08-30T14:04:35.470Z,32.71
2018-08-30T14:07:04.660Z,33.77
2018-08-30T14:09:33.629Z,33.78
2018-08-30T14:12:02.957Z,34.41
2018-08-30T14:14:31.916Z,34.24
2018-08-30T14:17:00.666Z,32.98
2018-08-30T14:19:29.582Z,33.62
2018-08-30T14:21:58.656Z,33.10
2018-08-30T14:24:27.588Z,33.23
2018-08-30T14:26:56.824Z,32.35
2018-08-30T14:29:25.725Z,32.71
2018-08-30T14:31:54.817Z,33.17
2018-08-30T14:34:23.892Z,33.66
2018-08-30T14:36:52.902Z,34.27
2018-08-30T14:39:21.909Z,33.11
2018-08-30T14:41:51.362Z,30.65
2018-08-30T14:44:20.634Z,29.61
2018-08-30T14:46:50.023Z,29.84
2018-08-30T14:49:19.301Z,29.74
2018-08-30T14:51:48.909Z,30.87
2018-08-30T14:54:18.365Z,30.87
2018-08-30T14:56:47.827Z,29.74
2018-08-30T14:59:17.366Z,29.89
2018-08-30T15:01:46.622Z,28.99
2018-08-30T15:04:15.905Z,29.43
2018-08-30T15:06:45.304Z,29.58
2018-08-30T15:09:14.689Z,29.48
2018-08-30T15:11:44.357Z,29.30
2018-08-30T15:14:13.729Z,30.37
2018-08-30T15:16:43.215Z,29.79
2018-08-30T15:19:12.968Z,30.18
2018-08-30T15:21:42.333Z,28.74
2018-08-30T15:24:11.789Z,30.06
2018-08-30T15:26:41.105Z,29.89
2018-08-30T15:29:10.420Z,30.52
2018-08-30T15:31:39.887Z,30.29
2018-08-30T15:34:09.140Z,30.49
2018-08-30T15:36:38.405Z,30.47
2018-08-30T15:39:09.090Z,30.64
2018-08-30T15:41:38.182Z,30.44
2018-08-30T15:44:07.426Z,31.26
2018-08-30T15:46:36.501Z,31.83
2018-08-30T15:49:05.578Z,31.57
2018-08-30T15:51:34.625Z,31.63
2018-08-30T15:54:03.638Z,32.45
2018-08-30T15:56:32.572Z,31.96
2018-08-30T15:59:01.667Z,31.83
2018-08-30T16:01:30.729Z,32.07
2018-08-30T16:03:59.892Z,32.38
2018-08-30T16:06:28.927Z,31.65
2018-08-30T16:08:57.922Z,31.61
2018-08-30T16:11:26.871Z,32.60
2018-08-30T16:13:56.069Z,31.81
2018-08-30T16:16:25.019Z,31.77
2018-08-30T16:18:54.118Z,32.20
2018-08-30T16:21:23.109Z,33.49
2018-08-30T16:23:52.127Z,31.90
2018-08-30T16:26:21.131Z,32.35
2018-08-30T16:28:50.149Z,32.73
2018-08-30T16:31:19.158Z,32.21
2018-08-30T16:33:48.142Z,33.91
2018-08-30T16:36:17.146Z,32.70
2018-08-30T16:38:46.165Z,32.70
2018-08-30T16:41:15.286Z,32.86
2018-08-30T16:43:44.362Z,32.69
2018-08-30T16:46:13.331Z,33.32
2018-08-30T16:48:42.508Z,33.10
2018-08-30T16:51:11.380Z,33.20
2018-08-30T16:53:40.463Z,33.04
2018-08-30T16:56:09.417Z,32.62
2018-08-30T16:58:38.495Z,33.75
2018-08-30T17:01:07.475Z,33.61
2018-08-30T17:03:36.915Z,33.32
2018-08-30T17:06:06.251Z,32.88
2018-08-30T17:08:35.282Z,32.47
2018-08-30T17:11:04.258Z,33.32
2018-08-30T17:13:33.337Z,34.41
2018-08-30T17:16:02.406Z,34.26
2018-08-30T17:18:31.441Z,33.15
2018-08-30T17:21:00.460Z,33.95
2018-08-30T17:23:29.438Z,34.11
2018-08-30T17:25:58.464Z,33.77
2018-08-30T17:28:27.610Z,33.46
2018-08-30T17:30:56.684Z,34.42
2018-08-30T17:33:25.717Z,33.48
2018-08-30T17:35:54.849Z,34.84
2018-08-30T17:38:23.798Z,35.40
2018-08-30T17:40:52.847Z,35.59
2018-08-30T17:43:21.830Z,35.05
2018-08-30T17:45:51.035Z,35.44
2018-08-30T17:48:20.049Z,34.65
2018-08-30T17:50:49.015Z,35.27
2018-08-30T17:53:18.019Z,34.42
2018-08-30T17:55:47.334Z,34.86
2018-08-30T17:58:16.297Z,36.13
2018-08-30T18:00:45.382Z,36.26
2018-08-30T18:03:14.411Z,37.00
2018-08-30T18:05:43.506Z,37.21
2018-08-30T18:08:12.526Z,36.31
2018-08-30T18:10:41.637Z,36.54
2018-08-30T18:13:10.682Z,37.49
2018-08-30T18:15:39.766Z,38.73
2018-08-30T18:18:08.742Z,38.56
2018-08-30T18:20:37.835Z,39.44
2018-08-30T18:23:07.189Z,39.90
2018-08-30T18:25:36.292Z,40.29
2018-08-30T18:28:05.491Z,41.26
2018-08-30T18:30:34.625Z,40.83
2018-08-30T18:33:03.813Z,40.22
2018-08-30T18:35:32.829Z,40.43
2018-08-30T18:38:01.834Z,40.50
2018-08-30T18:40:31.030Z,41.01
2018-08-30T18:43:00.094Z,42.01
2018-08-30T18:45:29.098Z,43.98
2018-08-30T18:47:58.130Z,44.86
2018-08-30T18:50:27.192Z,44.93
2018-08-30T18:52:56.322Z,45.21
2018-08-30T18:55:25.386Z,44.46
2018-08-30T18:57:54.373Z,43.88
2018-08-30T19:00:23.445Z,45.06
2018-08-30T19:02:52.646Z,46.32
2018-08-30T19:05:21.742Z,46.35
2018-08-30T19:07:50.982Z,45.94
2018-08-30T19:10:20.178Z,44.85
2018-08-30T19:12:49.890Z,44.44
2018-08-30T19:15:24.618Z,44.70
2018-08-30T19:18:00.342Z,44.64
2018-08-30T19:20:30.060Z,46.19
2018-08-30T19:22:59.193Z,46.62
2018-08-30T19:25:30.192Z,45.73
2018-08-30T19:27:59.346Z,46.29
2018-08-30T19:30:30.263Z,49.52
2018-08-30T19:33:00.193Z,48.75
2018-08-30T19:35:34.479Z,50.56
2018-08-30T19:38:04.103Z,49.00
2018-08-30T19:40:38.820Z,49.79
2018-08-30T19:43:08.182Z,50.43
2018-08-30T19:45:37.520Z,49.50
2018-08-30T19:48:06.807Z,51.11
2018-08-30T19:50:36.125Z,50.43
2018-08-30T19:53:05.498Z,49.25
2018-08-30T19:55:34.708Z,50.50
2018-08-30T19:58:04.542Z,48.91
2018-08-30T20:00:34.193Z,47.91
2018-08-30T20:03:03.459Z,47.89
2018-08-30T20:05:32.766Z,47.32
2018-08-30T20:08:02.264Z,47.55
2018-08-30T20:10:31.882Z,47.35
2018-08-30T20:13:01.361Z,46.96
2018-08-30T20:15:30.630Z,47.07
2018-08-30T20:17:59.968Z,47.30
2018-08-30T20:20:29.187Z,46.71
2018-08-30T20:22:58.454Z,46.23
2018-08-30T20:25:27.864Z,46.24
2018-08-30T20:27:57.193Z,46.68
2018-08-30T20:30:26.563Z,46.35
2018-08-30T20:32:56.080Z,46.63
2018-08-30T20:35:25.470Z,46.37
2018-08-30T20:37:54.854Z,46.91
2018-08-30T20:40:24.093Z,47.80
2018-08-30T20:42:53.469Z,47.28
2018-08-30T20:45:22.867Z,48.87
2018-08-30T20:47:52.275Z,48.28
2018-08-30T20:50:21.935Z,47.03
2018-08-30T20:52:51.299Z,49.64
2018-08-30T20:55:20.765Z,54.46
2018-08-30T20:57:50.157Z,53.93
2018-08-30T21:00:19.497Z,52.71
2018-08-30T21:02:49.315Z,51.04
2018-08-30T21:05:19.002Z,50.63
2018-08-30T21:07:48.470Z,50.20
2018-08-30T21:10:17.740Z,52.14
2018-08-30T21:12:47.158Z,50.41
2018-08-30T21:15:17.058Z,49.56
2018-08-30T21:17:46.372Z,49.41
2018-08-30T21:20:17.054Z,49.62
2018-08-30T21:22:47.316Z,50.65
2018-08-30T21:25:17.832Z,50.51
2018-08-30T21:27:48.139Z,51.01
2018-08-30T21:30:18.201Z,50.84
2018-08-30T21:32:48.381Z,49.95
2018-08-30T21:35:18.793Z,50.03
2018-08-30T21:37:49.169Z,51.00
2018-08-30T21:40:19.295Z,50.95
2018-08-30T21:42:49.762Z,49.63
2018-08-30T21:45:20.270Z,49.99
2018-08-30T21:47:50.795Z,50.28
2018-08-30T21:50:20.068Z,50.54
2018-08-30T21:52:49.513Z,51.22
2018-08-30T21:55:18.961Z,51.47
2018-08-30T21:57:48.410Z,50.56
2018-08-30T22:00:17.944Z,50.05
2018-08-30T22:02:47.379Z,50.97
2018-08-30T22:05:17.371Z,51.82
2018-08-30T22:07:48.312Z,52.15
2018-08-30T22:10:18.642Z,52.00
2018-08-30T22:12:49.051Z,51.44
2018-08-30T22:15:19.412Z,51.44
2018-08-30T22:17:49.393Z,51.11
2018-08-30T22:20:18.804Z,51.20
2018-08-30T22:22:49.238Z,50.92
2018-08-30T22:25:19.752Z,52.22
2018-08-30T22:27:50.937Z,51.92
2018-08-30T22:30:21.618Z,53.69
2018-08-30T22:32:51.765Z,52.57
2018-08-30T22:35:21.773Z,53.39
2018-08-30T22:37:51.869Z,53.40
2018-08-30T22:40:21.142Z,53.07
2018-08-30T22:42:50.480Z,52.37
2018-08-30T22:45:20.133Z,51.76
2018-08-30T22:47:49.619Z,52.41
2018-08-30T22:50:18.910Z,51.98
2018-08-30T22:52:48.234Z,52.21
2018-08-30T22:55:17.651Z,51.98
2018-08-30T22:57:47.056Z,51.68
2018-08-30T23:00:16.234Z,52.77
2018-08-30T23:02:45.823Z,52.38
2018-08-30T23:05:15.025Z,51.19
2018-08-30T23:07:44.455Z,52.15
2018-08-30T23:10:13.905Z,52.49
2018-08-30T23:12:43.166Z,51.75
2018-08-30T23:15:12.770Z,52.20
2018-08-30T23:17:42.318Z,53.28
2018-08-30T23:20:11.969Z,53.74
2018-08-30T23:22:41.310Z,53.54
2018-08-30T23:25:10.609Z,53.71
2018-08-30T23:27:40.095Z,54.56
2018-08-30T23:30:09.595Z,54.10
2018-08-30T23:32:39.107Z,54.99
2018-08-30T23:35:08.288Z,54.40
2018-08-30T23:37:37.910Z,53.73
2018-08-30T23:40:09.045Z,53.23
2018-08-30T23:42:38.382Z,55.24
2018-08-30T23:45:07.969Z,56.01
2018-08-30T23:47:37.295Z,54.85
2018-08-30T23:50:07.000Z,54.93
2018-08-30T23:52:36.353Z,53.32
2018-08-30T23:55:05.731Z,53.22
2018-08-30T23:57:35.199Z,54.05
